createdAt,value
2023-03-22T00:00:41.612Z,95.92
2023-03-22T00:03:20.709Z,96.07
2023-03-22T00:05:51.068Z,96.33
2023-03-22T00:08:21.026Z,100.00
2023-03-22T00:10:49.932Z,99.90
2023-03-22T00:13:19.852Z,98.55
2023-03-22T00:15:49.686Z,97.90
2023-03-22T00:18:20.366Z,99.46
2023-03-22T00:20:51.415Z,98.64
2023-03-22T00:23:20.843Z,99.42
2023-03-22T00:25:50.515Z,99.53
2023-03-22T00:28:20.265Z,98.77
2023-03-22T00:30:54.047Z,99.73
2023-03-22T00:33:23.303Z,100.00
2023-03-22T00:35:55.253Z,100.00
2023-03-22T00:38:39.487Z,100.00
2023-03-22T00:41:16.502Z,100.00
2023-03-22T00:43:47.608Z,100.00
2023-03-22T00:46:18.622Z,100.00
2023-03-22T00:48:48.652Z,100.00
2023-03-22T00:51:18.655Z,100.00
2023-03-22T00:53:51.432Z,100.00
2023-03-22T00:56:23.478Z,100.00
2023-03-22T00:59:00.833Z,100.00
2023-03-22T01:01:33.610Z,100.00
2023-03-22T01:04:06.856Z,100.00
2023-03-22T01:06:38.147Z,100.00
2023-03-22T01:09:15.693Z,100.00
2023-03-22T01:11:47.921Z,100.00
2023-03-22T01:14:20.796Z,100.00
2023-03-22T01:16:54.559Z,100.00
2023-03-22T01:19:25.674Z,100.00
2023-03-22T01:21:57.000Z,100.00
2023-03-22T01:24:28.056Z,100.00
2023-03-22T01:26:58.685Z,100.00
2023-03-22T01:29:29.810Z,100.00
2023-03-22T01:31:59.661Z,100.00
2023-03-22T01:34:29.443Z,100.00
2023-03-22T01:37:01.464Z,100.00
2023-03-22T01:39:33.240Z,100.00
2023-03-22T01:42:15.026Z,100.00
2023-03-22T01:45:10.250Z,100.00
2023-03-22T01:47:57.491Z,100.00
2023-03-22T01:50:29.815Z,100.00
2023-03-22T01:53:07.162Z,100.00
2023-03-22T01:55:43.365Z,100.00
2023-03-22T01:58:21.768Z,100.00
2023-03-22T02:00:57.414Z,100.00
2023-03-22T02:03:59.615Z,100.00
2023-03-22T02:06:33.263Z,100.00
2023-03-22T02:09:10.423Z,100.00
2023-03-22T02:11:50.029Z,100.00
2023-03-22T02:14:40.443Z,100.00
2023-03-22T02:17:56.178Z,100.00
2023-03-22T02:21:00.725Z,100.00
2023-03-22T02:23:36.255Z,100.00
2023-03-22T02:26:22.767Z,100.00
2023-03-22T02:29:00.994Z,100.00
2023-03-22T02:31:42.473Z,100.00
2023-03-22T02:34:20.316Z,100.00
2023-03-22T02:37:06.272Z,100.00
2023-03-22T02:39:37.786Z,100.00
2023-03-22T02:42:10.006Z,100.00
2023-03-22T02:44:48.442Z,100.00
2023-03-22T02:47:25.507Z,100.00
2023-03-22T02:50:00.045Z,100.00
2023-03-22T02:52:42.406Z,100.00
2023-03-22T02:55:28.656Z,100.00
2023-03-22T02:58:22.977Z,100.00
2023-03-22T03:00:56.071Z,100.00
2023-03-22T03:03:32.551Z,100.00
2023-03-22T03:06:09.460Z,100.00
2023-03-22T03:08:42.282Z,100.00
2023-03-22T03:11:14.837Z,100.00
2023-03-22T03:13:48.360Z,100.00
2023-03-22T03:16:21.939Z,100.00
2023-03-22T03:19:11.183Z,100.00
2023-03-22T03:21:43.814Z,100.00
2023-03-22T03:24:23.024Z,100.00
2023-03-22T03:27:11.518Z,100.00
2023-03-22T03:30:00.519Z,100.00
2023-03-22T03:32:43.509Z,100.00
2023-03-22T03:35:25.411Z,100.00
2023-03-22T03:38:03.616Z,100.00
2023-03-22T03:40:35.586Z,100.00
2023-03-22T03:43:09.818Z,100.00
2023-03-22T03:45:39.771Z,100.00
2023-03-22T03:48:13.050Z,100.00
2023-03-22T03:50:42.853Z,100.00
2023-03-22T03:53:13.540Z,100.00
2023-03-22T03:55:43.948Z,100.00
2023-03-22T03:58:17.261Z,100.00
2023-03-22T04:00:48.740Z,100.00
2023-03-22T04:03:33.644Z,100.00
2023-03-22T04:06:04.207Z,100.00
2023-03-22T04:08:37.519Z,100.00
2023-03-22T04:11:07.404Z,100.00
2023-03-22T04:13:40.590Z,100.00
2023-03-22T04:16:13.483Z,100.00
2023-03-22T04:18:43.334Z,100.00
2023-03-22T04:21:16.998Z,100.00
2023-03-22T04:23:55.901Z,100.00
2023-03-22T04:26:27.500Z,100.00
2023-03-22T04:29:09.760Z,100.00
2023-03-22T04:31:41.547Z,100.00
2023-03-22T04:34:22.419Z,100.00
2023-03-22T04:36:56.262Z,100.00
2023-03-22T04:39:30.727Z,100.00
2023-03-22T04:42:17.739Z,100.00
2023-03-22T04:44:47.353Z,100.00
2023-03-22T04:47:16.737Z,100.00
2023-03-22T04:49:46.274Z,100.00
2023-03-22T04:52:18.028Z,100.00
2023-03-22T04:54:54.381Z,100.00
2023-03-22T04:57:25.004Z,100.00
2023-03-22T04:59:54.668Z,100.00
2023-03-22T05:02:23.329Z,100.00
2023-03-22T05:04:52.389Z,100.00
2023-03-22T05:07:32.957Z,100.00
2023-03-22T05:10:03.186Z,100.00
2023-03-22T05:12:32.391Z,100.00
2023-03-22T05:15:16.524Z,100.00
2023-03-22T05:17:45.719Z,100.00
2023-03-22T05:20:16.822Z,100.00
2023-03-22T05:22:50.872Z,100.00
2023-03-22T05:25:20.888Z,100.00
2023-03-22T05:27:51.014Z,100.00
2023-03-22T05:30:43.545Z,100.00
2023-03-22T05:33:23.305Z,100.00
2023-03-22T05:35:54.995Z,100.00
2023-03-22T05:38:26.120Z,100.00
2023-03-22T05:40:56.424Z,100.00
2023-03-22T05:43:26.043Z,100.00
2023-03-22T05:45:55.606Z,100.00
2023-03-22T05:48:54.113Z,100.00
2023-03-22T05:51:26.292Z,100.00
2023-03-22T05:53:55.581Z,100.00
2023-03-22T05:56:29.382Z,100.00
2023-03-22T05:59:05.351Z,100.00
2023-03-22T06:01:34.057Z,100.00
2023-03-22T06:04:14.007Z,100.00
2023-03-22T06:07:03.055Z,100.00
2023-03-22T06:09:50.587Z,100.00
2023-03-22T06:12:28.262Z,100.00
2023-03-22T06:15:04.234Z,100.00
2023-03-22T06:17:47.970Z,100.00
2023-03-22T06:20:20.307Z,100.00
2023-03-22T06:22:54.356Z,100.00
2023-03-22T06:25:24.607Z,100.00
2023-03-22T06:27:53.681Z,100.00
2023-03-22T06:30:23.101Z,100.00
2023-03-22T06:33:11.071Z,100.00
2023-03-22T06:35:41.945Z,100.00
2023-03-22T06:38:12.477Z,100.00
2023-03-22T06:40:42.225Z,100.00
2023-03-22T06:43:11.063Z,100.00
2023-03-22T06:45:41.527Z,100.00
2023-03-22T06:48:10.853Z,100.00
2023-03-22T06:50:49.617Z,100.00
2023-03-22T06:53:27.742Z,100.00
2023-03-22T06:55:56.811Z,100.00
2023-03-22T06:58:26.551Z,100.00
2023-03-22T07:00:57.032Z,100.00
2023-03-22T07:03:25.839Z,100.00
2023-03-22T07:06:06.291Z,100.00
2023-03-22T07:08:36.216Z,100.00
2023-03-22T07:11:05.525Z,100.00
2023-03-22T07:13:35.129Z,100.00
2023-03-22T07:16:06.825Z,100.00
2023-03-22T07:18:49.184Z,100.00
2023-03-22T07:21:18.275Z,100.00
2023-03-22T07:23:50.821Z,100.00
2023-03-22T07:26:20.868Z,99.42
2023-03-22T07:28:50.782Z,95.31
2023-03-22T07:31:20.803Z,93.91
2023-03-22T07:33:55.317Z,93.53
2023-03-22T07:36:26.014Z,90.98
2023-03-22T07:38:55.476Z,89.69
2023-03-22T07:41:44.328Z,88.74
2023-03-22T07:44:22.527Z,88.87
2023-03-22T07:47:10.100Z,87.09
2023-03-22T07:50:01.715Z,86.38
2023-03-22T07:52:34.512Z,89.57
2023-03-22T07:55:03.843Z,88.98
2023-03-22T07:57:32.773Z,89.05
2023-03-22T08:00:01.956Z,85.22
2023-03-22T08:02:46.559Z,81.69
2023-03-22T08:05:33.829Z,80.63
2023-03-22T08:08:04.536Z,80.51
2023-03-22T08:10:33.666Z,81.46
2023-03-22T08:13:03.183Z,78.39
2023-03-22T08:15:32.057Z,77.54
2023-03-22T08:18:01.148Z,78.55
2023-03-22T08:20:34.451Z,77.74
2023-03-22T08:23:11.840Z,75.98
2023-03-22T08:26:19.431Z,78.03
2023-03-22T08:28:48.332Z,74.76
2023-03-22T08:31:17.801Z,71.77
2023-03-22T08:33:47.757Z,72.11
2023-03-22T08:36:18.298Z,71.29
2023-03-22T08:38:51.669Z,71.44
2023-03-22T08:41:24.707Z,67.08
2023-03-22T08:43:53.448Z,63.92
2023-03-22T08:46:22.451Z,64.18
2023-03-22T08:48:53.065Z,64.05
2023-03-22T08:51:28.648Z,61.24
2023-03-22T08:54:14.088Z,59.56
2023-03-22T08:56:55.475Z,59.46
2023-03-22T08:59:52.617Z,53.55
2023-03-22T09:02:39.960Z,51.60
2023-03-22T09:05:09.868Z,52.03
2023-03-22T09:07:39.468Z,48.68
2023-03-22T09:10:17.688Z,50.08
2023-03-22T09:12:48.940Z,47.90
2023-03-22T09:15:18.238Z,44.56
2023-03-22T09:17:49.982Z,46.07
2023-03-22T09:20:19.190Z,44.71
2023-03-22T09:22:48.167Z,44.55
2023-03-22T09:25:17.793Z,44.35
2023-03-22T09:27:48.616Z,44.29
2023-03-22T09:30:17.813Z,44.11
2023-03-22T09:32:46.399Z,43.11
2023-03-22T09:35:16.811Z,43.20
2023-03-22T09:38:07.006Z,41.26
2023-03-22T09:40:37.952Z,40.90
2023-03-22T09:43:07.986Z,40.42
2023-03-22T09:45:42.168Z,40.03
2023-03-22T09:48:22.488Z,40.05
2023-03-22T09:50:52.961Z,40.19
2023-03-22T09:53:23.805Z,39.94
2023-03-22T09:55:55.353Z,38.99
2023-03-22T09:58:26.592Z,37.84
2023-03-22T10:00:55.153Z,37.81
2023-03-22T10:03:29.805Z,36.66
2023-03-22T10:06:18.773Z,36.39
2023-03-22T10:08:59.944Z,34.11
2023-03-22T10:11:34.467Z,33.50
2023-03-22T10:14:21.397Z,32.79
2023-03-22T10:16:51.503Z,33.45
2023-03-22T10:19:23.993Z,34.28
2023-03-22T10:21:55.009Z,34.37
2023-03-22T10:24:29.118Z,34.06
2023-03-22T10:26:58.151Z,34.34
2023-03-22T10:29:27.539Z,34.52
2023-03-22T10:31:57.221Z,34.43
2023-03-22T10:34:36.977Z,33.84
2023-03-22T10:37:07.893Z,33.80
2023-03-22T10:39:39.981Z,33.58
2023-03-22T10:42:14.925Z,33.49
2023-03-22T10:44:48.835Z,33.57
2023-03-22T10:47:19.963Z,34.28
2023-03-22T10:49:54.656Z,34.25
2023-03-22T10:52:35.061Z,33.10
2023-03-22T10:55:05.097Z,32.66
2023-03-22T10:57:34.365Z,32.03
2023-03-22T11:00:09.411Z,31.82
2023-03-22T11:02:45.170Z,31.50
2023-03-22T11:05:21.210Z,31.12
2023-03-22T11:07:49.796Z,30.81
2023-03-22T11:10:25.241Z,30.86
2023-03-22T11:12:55.559Z,31.04
2023-03-22T11:15:26.904Z,30.55
2023-03-22T11:18:00.646Z,30.80
2023-03-22T11:20:37.739Z,31.42
2023-03-22T11:23:07.311Z,30.46
2023-03-22T11:25:39.053Z,30.42
2023-03-22T11:28:10.815Z,32.35
2023-03-22T11:30:39.788Z,35.24
2023-03-22T11:33:08.977Z,36.66
2023-03-22T11:35:39.131Z,36.44
2023-03-22T11:38:22.677Z,37.51
2023-03-22T11:41:02.151Z,35.43
2023-03-22T11:43:36.934Z,34.85
2023-03-22T11:46:07.995Z,34.63
2023-03-22T11:48:37.315Z,35.86
2023-03-22T11:51:07.967Z,38.59
2023-03-22T11:53:38.946Z,38.42
2023-03-22T11:56:09.598Z,37.31
2023-03-22T11:58:38.158Z,37.39
2023-03-22T12:01:10.529Z,37.77
2023-03-22T12:03:41.309Z,39.62
2023-03-22T12:06:21.243Z,39.43
2023-03-22T12:08:54.297Z,38.38
2023-03-22T12:11:36.654Z,37.97
2023-03-22T12:14:09.917Z,37.96
2023-03-22T12:16:47.034Z,37.90
2023-03-22T12:19:24.372Z,37.53
2023-03-22T12:21:53.174Z,37.30
2023-03-22T12:24:31.684Z,38.00
2023-03-22T12:27:05.176Z,38.43
2023-03-22T12:29:34.276Z,39.66
2023-03-22T12:32:07.450Z,38.88
2023-03-22T12:34:41.681Z,38.53
2023-03-22T12:37:15.170Z,38.94
2023-03-22T12:39:47.553Z,39.13
2023-03-22T12:42:22.320Z,40.31
2023-03-22T12:45:04.137Z,41.36
2023-03-22T12:47:42.108Z,41.24
2023-03-22T12:50:20.175Z,41.30
2023-03-22T12:52:50.294Z,40.30
2023-03-22T12:55:31.059Z,39.29
2023-03-22T12:58:00.569Z,37.14
2023-03-22T13:00:45.224Z,36.31
2023-03-22T13:03:16.793Z,34.90
2023-03-22T13:05:46.385Z,34.69
2023-03-22T13:08:24.771Z,32.80
2023-03-22T13:11:06.308Z,31.39
2023-03-22T13:13:41.535Z,30.71
2023-03-22T13:16:10.135Z,29.35
2023-03-22T13:18:39.105Z,29.43
2023-03-22T13:21:30.233Z,29.19
2023-03-22T13:24:06.730Z,30.11
2023-03-22T13:26:58.521Z,28.54
2023-03-22T13:29:33.552Z,27.81
2023-03-22T13:32:06.487Z,27.84
2023-03-22T13:34:38.086Z,28.42
2023-03-22T13:37:31.994Z,28.72
2023-03-22T13:40:02.470Z,28.95
2023-03-22T13:42:37.005Z,29.11
2023-03-22T13:45:09.280Z,29.45
2023-03-22T13:47:43.985Z,28.87
2023-03-22T13:50:13.185Z,29.43
2023-03-22T13:52:44.246Z,30.01
2023-03-22T13:55:37.247Z,31.17
2023-03-22T13:58:09.371Z,31.66
2023-03-22T14:00:41.074Z,32.34
2023-03-22T14:03:30.671Z,31.81
2023-03-22T14:06:05.037Z,31.77
2023-03-22T14:08:35.134Z,31.38
2023-03-22T14:11:10.584Z,31.60
2023-03-22T14:13:48.476Z,31.56
2023-03-22T14:16:29.422Z,31.60
2023-03-22T14:18:59.162Z,31.80
2023-03-22T14:21:37.583Z,31.63
